createdAt,value
2022-10-05T00:00:13.509Z,19.40
2022-10-05T00:00:48.797Z,18.30
2022-10-05T00:01:24.106Z,26.60
2022-10-05T00:01:59.910Z,20.40
2022-10-05T00:02:35.443Z,16.00
2022-10-05T00:03:11.628Z,18.70
2022-10-05T00:03:47.072Z,19.70
2022-10-05T00:04:22.295Z,17.60
2022-10-05T00:04:57.501Z,17.90
2022-10-05T00:05:32.857Z,21.00
2022-10-05T00:06:08.392Z,24.30
2022-10-05T00:06:43.813Z,20.60
2022-10-05T00:07:18.597Z,17.30
2022-10-05T00:07:53.974Z,22.00
2022-10-05T00:08:29.247Z,23.40
2022-10-05T00:09:04.696Z,18.20
2022-10-05T00:09:40.496Z,14.00
2022-10-05T00:10:15.626Z,15.10
2022-10-05T00:10:52.066Z,18.40
2022-10-05T00:11:27.575Z,19.70
2022-10-05T00:12:02.874Z,18.00
2022-10-05T00:12:38.203Z,15.90
2022-10-05T00:13:13.525Z,14.30
2022-10-05T00:13:48.746Z,18.00
2022-10-05T00:14:24.162Z,18.00
2022-10-05T00:14:59.362Z,15.70
2022-10-05T00:15:34.895Z,16.90
2022-10-05T00:16:10.106Z,19.10
2022-10-05T00:16:46.221Z,16.70
2022-10-05T00:17:21.458Z,18.10
2022-10-05T00:17:56.869Z,23.70
2022-10-05T00:18:32.113Z,19.60
2022-10-05T00:19:07.277Z,20.10
2022-10-05T00:19:43.468Z,19.00
2022-10-05T00:20:18.804Z,20.00
2022-10-05T00:20:54.362Z,25.60
2022-10-05T00:21:29.818Z,22.60
2022-10-05T00:22:05.287Z,17.90
2022-10-05T00:22:40.486Z,20.80
2022-10-05T00:23:15.837Z,20.00
2022-10-05T00:23:51.339Z,21.90
2022-10-05T00:24:26.643Z,19.00
2022-10-05T00:25:01.895Z,24.70
2022-10-05T00:25:36.992Z,27.90
2022-10-05T00:26:12.660Z,22.70
2022-10-05T00:26:48.352Z,23.60
2022-10-05T00:27:23.658Z,20.60
2022-10-05T00:27:59.130Z,18.80
2022-10-05T00:28:34.383Z,17.00
2022-10-05T00:29:09.465Z,21.90
2022-10-05T00:29:44.681Z,22.10
2022-10-05T00:30:19.922Z,17.10
2022-10-05T00:30:55.222Z,17.60
2022-10-05T00:31:30.609Z,19.50
2022-10-05T00:32:06.093Z,18.40
2022-10-05T00:32:41.652Z,17.30
2022-10-05T00:33:16.786Z,16.50
2022-10-05T00:33:51.978Z,16.60
2022-10-05T00:34:27.197Z,16.30
2022-10-05T00:35:02.324Z,17.50
2022-10-05T00:35:38.331Z,18.00
2022-10-05T00:36:13.720Z,18.10
2022-10-05T00:36:49.171Z,19.60
2022-10-05T00:37:24.323Z,18.80
2022-10-05T00:37:59.545Z,17.10
2022-10-05T00:38:34.903Z,18.40
2022-10-05T00:39:10.536Z,15.20
2022-10-05T00:39:46.056Z,20.50
2022-10-05T00:40:21.331Z,23.40
2022-10-05T00:40:57.037Z,20.70
2022-10-05T00:41:32.199Z,20.00
2022-10-05T00:42:07.752Z,20.10
2022-10-05T00:42:43.037Z,16.30
2022-10-05T00:43:18.270Z,19.50
2022-10-05T00:43:53.318Z,14.90
2022-10-05T00:44:28.536Z,19.60
2022-10-05T00:45:03.853Z,20.60
2022-10-05T00:45:39.244Z,18.90
2022-10-05T00:46:15.100Z,16.30
2022-10-05T00:46:50.190Z,14.90
2022-10-05T00:47:25.636Z,19.10
2022-10-05T00:48:00.995Z,16.80
2022-10-05T00:48:36.241Z,14.30
2022-10-05T00:49:11.639Z,21.80
2022-10-05T00:49:47.060Z,24.00
2022-10-05T00:50:22.493Z,20.40
2022-10-05T00:50:57.604Z,17.90
2022-10-05T00:51:33.084Z,20.70
2022-10-05T00:52:08.416Z,18.80
2022-10-05T00:52:43.856Z,17.40
2022-10-05T00:53:19.279Z,16.80
2022-10-05T00:53:54.572Z,18.90
2022-10-05T00:54:29.819Z,18.20
2022-10-05T00:55:05.130Z,13.20
2022-10-05T00:55:40.169Z,17.40
2022-10-05T00:56:15.572Z,14.60
2022-10-05T00:56:51.053Z,12.70
2022-10-05T00:57:26.521Z,16.00
2022-10-05T00:58:02.007Z,16.20
2022-10-05T00:58:37.424Z,16.80
2022-10-05T00:59:12.442Z,16.00
2022-10-05T00:59:47.623Z,13.50
2022-10-05T01:00:22.649Z,14.60
2022-10-05T01:00:57.860Z,14.70
2022-10-05T01:01:33.288Z,16.20
2022-10-05T01:02:08.593Z,18.30
2022-10-05T01:02:44.068Z,14.80
2022-10-05T01:03:19.201Z,14.80
2022-10-05T01:03:54.335Z,14.30
2022-10-05T01:04:29.604Z,15.90
2022-10-05T01:05:05.013Z,16.80
2022-10-05T01:05:40.577Z,17.30
2022-10-05T01:06:16.177Z,16.10
2022-10-05T01:06:51.551Z,14.60
2022-10-05T01:07:27.118Z,15.30
2022-10-05T01:08:02.342Z,15.40
2022-10-05T01:08:37.929Z,14.00
2022-10-05T01:09:13.341Z,15.90
2022-10-05T01:09:48.697Z,14.00
2022-10-05T01:10:23.747Z,15.60
2022-10-05T01:10:58.951Z,18.70
2022-10-05T01:11:34.024Z,19.00
2022-10-05T01:12:09.083Z,16.30
2022-10-05T01:12:44.393Z,17.20
2022-10-05T01:13:19.488Z,14.50
2022-10-05T01:13:54.971Z,10.30
2022-10-05T01:14:30.204Z,12.90
2022-10-05T01:15:05.681Z,14.50
2022-10-05T01:15:41.004Z,12.70
2022-10-05T01:16:16.274Z,15.70
2022-10-05T01:16:51.676Z,14.00
2022-10-05T01:17:27.007Z,15.10
2022-10-05T01:18:02.205Z,15.10
2022-10-05T01:18:37.647Z,12.20
2022-10-05T01:19:13.024Z,15.10
2022-10-05T01:19:48.440Z,17.20
2022-10-05T01:20:23.659Z,14.00
2022-10-05T01:20:58.902Z,12.10
2022-10-05T01:21:35.139Z,13.60
2022-10-05T01:22:10.665Z,14.40
2022-10-05T01:22:46.318Z,12.90
2022-10-05T01:23:21.643Z,13.20
2022-10-05T01:23:57.348Z,15.00
2022-10-05T01:24:32.608Z,12.90
2022-10-05T01:25:07.824Z,12.30
2022-10-05T01:25:43.155Z,14.00
2022-10-05T01:26:18.545Z,14.30
2022-10-05T01:26:54.275Z,14.20
2022-10-05T01:27:29.732Z,14.70
2022-10-05T01:28:04.918Z,18.20
2022-10-05T01:28:40.427Z,19.00
2022-10-05T01:29:15.713Z,20.30
2022-10-05T01:29:50.649Z,18.90
2022-10-05T01:30:25.970Z,15.90
2022-10-05T01:31:01.578Z,13.40
2022-10-05T01:31:37.235Z,12.50
2022-10-05T01:32:12.138Z,13.90
2022-10-05T01:32:47.297Z,17.50
2022-10-05T01:33:22.430Z,13.60
2022-10-05T01:33:57.682Z,16.40
2022-10-05T01:34:33.329Z,17.10
2022-10-05T01:35:08.457Z,14.10
2022-10-05T01:35:43.819Z,14.10
2022-10-05T01:36:19.316Z,17.10
2022-10-05T01:36:54.644Z,19.70
2022-10-05T01:37:29.864Z,17.60
2022-10-05T01:38:05.206Z,17.60
2022-10-05T01:38:40.737Z,15.80
2022-10-05T01:39:16.044Z,15.20
2022-10-05T01:39:51.305Z,16.40
2022-10-05T01:40:26.677Z,15.40
2022-10-05T01:41:01.982Z,16.50
2022-10-05T01:41:37.486Z,19.90
2022-10-05T01:42:12.728Z,17.20
2022-10-05T01:42:50.597Z,12.70
2022-10-05T01:43:25.670Z,14.20
2022-10-05T01:44:01.075Z,15.00
2022-10-05T01:44:36.511Z,15.50
2022-10-05T01:45:11.680Z,13.00
2022-10-05T01:45:47.008Z,15.70
2022-10-05T01:46:22.395Z,16.40
2022-10-05T01:46:58.451Z,15.20
2022-10-05T01:47:34.805Z,17.50
2022-10-05T01:48:09.923Z,18.60
2022-10-05T01:48:45.200Z,11.70
2022-10-05T01:49:20.561Z,12.00
2022-10-05T01:49:55.765Z,11.80
2022-10-05T01:50:30.828Z,12.10
2022-10-05T01:51:06.120Z,12.50
2022-10-05T01:51:41.473Z,16.10
2022-10-05T01:52:16.834Z,17.00
2022-10-05T01:52:53.055Z,14.50
2022-10-05T01:53:28.534Z,14.70
2022-10-05T01:54:03.619Z,14.80
2022-10-05T01:54:38.954Z,15.00
2022-10-05T01:55:14.266Z,12.70
2022-10-05T01:55:49.704Z,12.50
2022-10-05T01:56:25.703Z,14.90
2022-10-05T01:57:00.955Z,16.10
2022-10-05T01:57:36.438Z,13.50
2022-10-05T01:58:11.819Z,15.70
2022-10-05T01:58:47.146Z,16.90
2022-10-05T01:59:22.493Z,15.30
2022-10-05T01:59:59.058Z,23.90
2022-10-05T02:00:34.162Z,23.30
2022-10-05T02:01:09.735Z,18.60
2022-10-05T02:01:44.806Z,15.70
2022-10-05T02:02:20.582Z,17.00
2022-10-05T02:02:55.841Z,16.10
2022-10-05T02:03:30.857Z,13.00
2022-10-05T02:04:06.100Z,14.10
2022-10-05T02:05:01.341Z,15.20
2022-10-05T02:05:17.039Z,15.20
2022-10-05T02:05:52.303Z,18.30
2022-10-05T02:06:27.489Z,15.60
2022-10-05T02:07:02.840Z,15.10
2022-10-05T02:07:38.188Z,16.50
2022-10-05T02:08:13.805Z,17.20
2022-10-05T02:08:49.094Z,16.70
2022-10-05T02:09:24.530Z,15.50
2022-10-05T02:09:59.940Z,17.10
2022-10-05T02:10:35.217Z,16.50
2022-10-05T02:11:10.401Z,13.50
2022-10-05T02:11:46.020Z,13.70
2022-10-05T02:12:21.322Z,16.80
2022-10-05T02:12:56.559Z,16.20
2022-10-05T02:13:31.687Z,13.70
2022-10-05T02:14:06.979Z,14.50
2022-10-05T02:14:42.382Z,18.40
2022-10-05T02:15:17.828Z,18.40
2022-10-05T02:15:53.133Z,13.20
2022-10-05T02:16:28.512Z,13.40
2022-10-05T02:17:04.019Z,16.10
2022-10-05T02:17:39.074Z,11.60
2022-10-05T02:18:14.014Z,11.30
2022-10-05T02:18:49.237Z,12.00
2022-10-05T02:19:24.890Z,13.40
2022-10-05T02:20:00.115Z,13.70
2022-10-05T02:20:35.471Z,14.50
2022-10-05T02:21:10.779Z,14.00
2022-10-05T02:21:46.014Z,13.20
2022-10-05T02:22:21.329Z,13.50
2022-10-05T02:22:56.702Z,14.20
2022-10-05T02:23:32.351Z,14.70
2022-10-05T02:24:07.656Z,15.30
2022-10-05T02:24:42.786Z,17.70
2022-10-05T02:25:18.395Z,16.70
2022-10-05T02:25:53.792Z,16.10
2022-10-05T02:26:29.120Z,15.20
2022-10-05T02:27:04.316Z,12.80
2022-10-05T02:27:39.479Z,14.70
2022-10-05T02:28:15.150Z,14.80
2022-10-05T02:28:50.453Z,13.30
2022-10-05T02:29:25.992Z,14.30
2022-10-05T02:30:01.247Z,13.70
2022-10-05T02:30:36.768Z,15.10
2022-10-05T02:31:12.075Z,15.50
2022-10-05T02:31:47.563Z,15.80
2022-10-05T02:32:22.822Z,17.60
2022-10-05T02:32:58.466Z,17.70
2022-10-05T02:33:33.687Z,16.40
2022-10-05T02:34:08.951Z,14.50
2022-10-05T02:34:44.303Z,17.80
2022-10-05T02:35:19.557Z,17.70
2022-10-05T02:35:54.712Z,14.80
2022-10-05T02:36:29.988Z,14.90
2022-10-05T02:37:05.443Z,14.80
2022-10-05T02:37:40.547Z,13.00
2022-10-05T02:38:15.769Z,14.40
2022-10-05T02:38:51.196Z,14.50
2022-10-05T02:39:26.598Z,15.50
2022-10-05T02:40:02.768Z,15.30
2022-10-05T02:40:37.954Z,16.10
2022-10-05T02:41:13.454Z,15.00
2022-10-05T02:41:48.566Z,14.40
2022-10-05T02:42:24.319Z,14.00
2022-10-05T02:42:59.532Z,16.10
2022-10-05T02:43:35.135Z,15.00
2022-10-05T02:44:10.378Z,11.80
2022-10-05T02:44:46.031Z,15.20
2022-10-05T02:45:21.065Z,16.80
2022-10-05T02:45:56.614Z,19.30
2022-10-05T02:46:31.834Z,18.70
2022-10-05T02:47:06.975Z,17.10
2022-10-05T02:47:42.397Z,17.40
2022-10-05T02:48:18.475Z,15.30
2022-10-05T02:48:53.831Z,16.10
2022-10-05T02:49:28.950Z,17.20
2022-10-05T02:50:04.253Z,15.90
2022-10-05T02:50:39.889Z,15.00
2022-10-05T02:51:16.391Z,17.80
2022-10-05T02:51:52.157Z,19.30
2022-10-05T02:52:27.468Z,17.60
2022-10-05T02:53:02.651Z,15.20
2022-10-05T02:53:37.774Z,14.50
2022-10-05T02:54:13.197Z,14.70
2022-10-05T02:54:48.346Z,21.60
2022-10-05T02:55:23.593Z,21.10
2022-10-05T02:55:58.653Z,18.00
2022-10-05T02:56:34.240Z,23.60
2022-10-05T02:57:09.828Z,19.30
2022-10-05T02:57:45.752Z,23.20
2022-10-05T02:58:21.127Z,21.30
2022-10-05T02:58:56.550Z,18.80
2022-10-05T02:59:31.766Z,18.50
2022-10-05T03:00:07.211Z,18.60
2022-10-05T03:00:42.737Z,15.20
2022-10-05T03:01:18.167Z,16.40
2022-10-05T03:01:53.320Z,16.60
2022-10-05T03:02:28.653Z,13.60
2022-10-05T03:03:03.718Z,13.90
2022-10-05T03:03:38.969Z,14.70
2022-10-05T03:04:14.206Z,12.80
2022-10-05T03:04:49.207Z,13.60
2022-10-05T03:05:24.639Z,12.50
2022-10-05T03:06:00.002Z,17.20
2022-10-05T03:06:35.619Z,20.00
2022-10-05T03:07:10.899Z,16.80
2022-10-05T03:07:46.503Z,16.90
2022-10-05T03:08:21.647Z,18.50
2022-10-05T03:08:57.630Z,18.30
2022-10-05T03:09:32.909Z,19.00
2022-10-05T03:10:08.064Z,15.70
2022-10-05T03:10:43.102Z,18.90
2022-10-05T03:11:18.322Z,24.70
2022-10-05T03:11:53.620Z,26.80
2022-10-05T03:12:28.735Z,20.50
2022-10-05T03:13:03.964Z,15.10
2022-10-05T03:13:39.371Z,16.60
2022-10-05T03:14:14.704Z,19.20
2022-10-05T03:14:49.986Z,19.00
2022-10-05T03:15:25.118Z,14.60
2022-10-05T03:16:00.474Z,17.80
2022-10-05T03:16:35.973Z,17.50
2022-10-05T03:17:11.214Z,13.20
2022-10-05T03:17:46.349Z,12.60
2022-10-05T03:18:21.961Z,16.90
2022-10-05T03:18:57.064Z,15.60
2022-10-05T03:19:32.191Z,15.40
2022-10-05T03:20:07.242Z,19.80
2022-10-05T03:20:42.346Z,20.00
2022-10-05T03:21:17.374Z,15.70
2022-10-05T03:21:52.553Z,14.70
2022-10-05T03:22:27.785Z,21.30
2022-10-05T03:23:02.987Z,19.00
2022-10-05T03:23:39.222Z,16.20
2022-10-05T03:24:14.465Z,13.00
2022-10-05T03:24:49.589Z,15.20
2022-10-05T03:25:25.581Z,16.70
2022-10-05T03:26:00.725Z,16.60
2022-10-05T03:26:35.983Z,22.20
2022-10-05T03:27:11.554Z,21.00
2022-10-05T03:27:46.860Z,19.60
2022-10-05T03:28:22.372Z,18.40
2022-10-05T03:28:57.817Z,16.30
2022-10-05T03:29:33.106Z,15.20
2022-10-05T03:30:08.350Z,18.90
2022-10-05T03:30:43.687Z,23.70
2022-10-05T03:31:19.343Z,15.80
2022-10-05T03:31:54.432Z,15.00
2022-10-05T03:32:29.449Z,15.00
2022-10-05T03:33:04.806Z,14.40
2022-10-05T03:33:40.154Z,13.40
2022-10-05T03:34:15.727Z,15.20
2022-10-05T03:34:50.745Z,16.50
2022-10-05T03:35:25.881Z,16.40
2022-10-05T03:36:00.906Z,15.50
2022-10-05T03:36:36.354Z,17.00
2022-10-05T03:37:11.499Z,16.80
2022-10-05T03:37:46.514Z,14.90
2022-10-05T03:38:21.787Z,18.60
2022-10-05T03:38:57.028Z,17.40
2022-10-05T03:39:32.244Z,16.90
2022-10-05T03:40:07.703Z,24.20
2022-10-05T03:40:43.221Z,23.00
2022-10-05T03:41:18.581Z,17.80
2022-10-05T03:41:53.793Z,20.00
2022-10-05T03:42:29.010Z,19.40
2022-10-05T03:43:04.717Z,19.30
2022-10-05T03:43:40.581Z,16.70
2022-10-05T03:44:16.888Z,15.50
2022-10-05T03:44:52.365Z,18.70
2022-10-05T03:45:27.648Z,17.80
2022-10-05T03:46:03.260Z,17.50
2022-10-05T03:46:38.359Z,17.40
2022-10-05T03:47:13.596Z,16.50
2022-10-05T03:47:48.885Z,20.30
2022-10-05T03:48:23.893Z,21.30
2022-10-05T03:48:59.164Z,17.00
2022-10-05T03:49:34.314Z,17.00
2022-10-05T03:50:09.401Z,16.30
2022-10-05T03:50:44.702Z,20.10
2022-10-05T03:51:20.027Z,22.80
2022-10-05T03:51:55.055Z,23.40
2022-10-05T03:52:30.201Z,19.40
2022-10-05T03:53:05.479Z,18.80
2022-10-05T03:53:40.562Z,16.10
2022-10-05T03:54:15.671Z,16.60
2022-10-05T03:54:51.012Z,20.30
2022-10-05T03:55:26.638Z,21.60
2022-10-05T03:56:03.347Z,23.10
2022-10-05T03:56:38.393Z,23.10
2022-10-05T03:57:13.632Z,19.90
2022-10-05T03:57:49.168Z,15.90
2022-10-05T03:58:24.714Z,15.90
2022-10-05T03:58:59.955Z,17.70
2022-10-05T03:59:35.351Z,18.50
2022-10-05T04:00:10.633Z,21.40
2022-10-05T04:00:45.843Z,25.30
2022-10-05T04:01:21.122Z,24.30
2022-10-05T04:01:56.437Z,18.20
2022-10-05T04:02:31.634Z,18.30
2022-10-05T04:03:06.741Z,17.50
2022-10-05T04:03:42.108Z,18.10
2022-10-05T04:04:17.758Z,18.50
2022-10-05T04:04:53.335Z,20.40
2022-10-05T04:05:28.806Z,18.80
2022-10-05T04:06:04.335Z,21.30
2022-10-05T04:06:39.650Z,18.20
2022-10-05T04:07:14.925Z,16.60
2022-10-05T04:07:50.413Z,16.60
2022-10-05T04:08:25.801Z,17.60
2022-10-05T04:09:00.928Z,17.50
2022-10-05T04:09:36.358Z,19.30
2022-10-05T04:10:11.767Z,22.30
2022-10-05T04:10:46.739Z,23.30
2022-10-05T04:11:22.048Z,17.80
2022-10-05T04:11:57.313Z,20.00
2022-10-05T04:12:32.652Z,17.90
2022-10-05T04:13:08.066Z,20.90
2022-10-05T04:13:43.290Z,18.00
2022-10-05T04:14:18.658Z,18.30
2022-10-05T04:14:53.882Z,21.70
2022-10-05T04:15:29.282Z,21.40
2022-10-05T04:16:04.640Z,18.40
2022-10-05T04:16:39.854Z,15.20
2022-10-05T04:17:15.793Z,15.30
2022-10-05T04:17:51.376Z,17.30
2022-10-05T04:18:26.693Z,17.60
2022-10-05T04:19:01.828Z,17.60
2022-10-05T04:19:37.342Z,22.40
2022-10-05T04:20:12.827Z,19.60
2022-10-05T04:20:48.205Z,20.50
2022-10-05T04:21:24.064Z,29.40
2022-10-05T04:21:58.398Z,20.60
2022-10-05T04:22:33.964Z,18.30
2022-10-05T04:23:09.209Z,23.80
2022-10-05T04:23:44.399Z,16.10
2022-10-05T04:24:19.687Z,14.30
2022-10-05T04:24:55.378Z,19.30
2022-10-05T04:25:30.372Z,18.80
2022-10-05T04:26:05.499Z,17.80
2022-10-05T04:26:40.499Z,18.90
2022-10-05T04:27:16.398Z,18.40
2022-10-05T04:27:51.889Z,19.00
2022-10-05T04:28:31.177Z,19.40
2022-10-05T04:29:02.392Z,22.10
2022-10-05T04:29:37.681Z,21.10
2022-10-05T04:30:12.828Z,25.50
2022-10-05T04:30:48.022Z,20.90
2022-10-05T04:31:23.250Z,18.00
2022-10-05T04:31:58.914Z,16.40
2022-10-05T04:32:33.899Z,17.30
2022-10-05T04:33:09.252Z,15.80
2022-10-05T04:33:44.306Z,15.70
2022-10-05T04:34:19.523Z,16.50
2022-10-05T04:34:54.654Z,17.80
2022-10-05T04:35:29.986Z,17.50
2022-10-05T04:36:05.329Z,16.60
2022-10-05T04:36:40.585Z,14.60
2022-10-05T04:37:15.847Z,19.00
2022-10-05T04:37:51.270Z,18.00
2022-10-05T04:38:26.597Z,16.30
2022-10-05T04:39:02.097Z,17.20
2022-10-05T04:39:37.944Z,18.00
2022-10-05T04:40:13.138Z,20.70
2022-10-05T04:40:48.491Z,27.20
2022-10-05T04:41:23.993Z,22.10
2022-10-05T04:41:59.103Z,19.10
2022-10-05T04:42:34.575Z,20.20
2022-10-05T04:43:09.908Z,22.10
2022-10-05T04:43:45.055Z,22.60
2022-10-05T04:44:20.290Z,16.60
2022-10-05T04:44:59.084Z,18.30
2022-10-05T04:45:31.122Z,19.40
2022-10-05T04:46:06.431Z,21.60
2022-10-05T04:46:42.805Z,22.20
2022-10-05T04:47:17.910Z,19.70
2022-10-05T04:47:53.069Z,16.60
2022-10-05T04:48:28.045Z,15.50
2022-10-05T04:49:03.270Z,16.70
2022-10-05T04:49:38.479Z,15.30
2022-10-05T04:50:13.903Z,19.90
2022-10-05T04:50:49.320Z,20.10
2022-10-05T04:51:24.674Z,15.20
2022-10-05T04:52:00.807Z,16.30
2022-10-05T04:52:36.034Z,19.70
2022-10-05T04:53:11.081Z,19.50
2022-10-05T04:53:46.128Z,14.30
2022-10-05T04:54:21.374Z,20.90
2022-10-05T04:54:56.422Z,27.00
2022-10-05T04:55:31.958Z,22.70
2022-10-05T04:56:07.193Z,14.70
2022-10-05T04:56:44.192Z,15.90
2022-10-05T04:57:19.548Z,17.00
2022-10-05T04:57:55.120Z,15.40
2022-10-05T04:58:30.237Z,14.60
2022-10-05T04:59:05.571Z,14.70
2022-10-05T04:59:40.639Z,17.60
2022-10-05T05:00:15.779Z,17.50
2022-10-05T05:00:51.233Z,15.90
2022-10-05T05:01:26.301Z,18.60
2022-10-05T05:02:01.404Z,22.80
2022-10-05T05:02:36.820Z,17.80
2022-10-05T05:03:12.437Z,15.30
2022-10-05T05:03:47.659Z,20.80
2022-10-05T05:04:22.937Z,18.90
2022-10-05T05:04:58.236Z,22.30
2022-10-05T05:05:33.649Z,22.00
2022-10-05T05:06:22.626Z,20.60
2022-10-05T05:06:44.255Z,15.40
2022-10-05T05:07:19.139Z,13.70
2022-10-05T05:07:54.361Z,16.90
2022-10-05T05:08:29.602Z,18.60
2022-10-05T05:09:04.809Z,17.10
2022-10-05T05:09:40.127Z,17.70
2022-10-05T05:10:15.429Z,20.00
2022-10-05T05:10:50.838Z,20.70
2022-10-05T05:11:26.143Z,16.40
2022-10-05T05:12:01.440Z,16.40
2022-10-05T05:12:36.885Z,16.20
2022-10-05T05:13:12.007Z,19.70
2022-10-05T05:13:47.333Z,15.10
2022-10-05T05:14:22.490Z,14.90
2022-10-05T05:14:57.973Z,16.60
2022-10-05T05:15:33.204Z,18.90
2022-10-05T05:16:08.510Z,18.00
2022-10-05T05:16:44.019Z,19.30
2022-10-05T05:17:19.175Z,22.40
2022-10-05T05:17:54.686Z,19.90
2022-10-05T05:18:29.980Z,17.30
2022-10-05T05:19:05.329Z,19.10
2022-10-05T05:19:40.555Z,18.20
2022-10-05T05:20:15.780Z,18.70
2022-10-05T05:20:50.974Z,19.00
2022-10-05T05:21:26.284Z,19.30
2022-10-05T05:22:01.582Z,18.90
2022-10-05T05:22:36.802Z,20.60
2022-10-05T05:23:12.236Z,21.10
2022-10-05T05:23:47.474Z,21.80
2022-10-05T05:24:22.803Z,17.30
2022-10-05T05:24:58.044Z,18.70
2022-10-05T05:25:33.440Z,19.70
2022-10-05T05:26:08.872Z,20.90
2022-10-05T05:26:44.208Z,19.40
2022-10-05T05:27:19.516Z,16.80
2022-10-05T05:27:54.573Z,14.60
2022-10-05T05:28:29.687Z,17.90
2022-10-05T05:29:04.879Z,17.90
2022-10-05T05:29:40.307Z,20.90
2022-10-05T05:30:15.543Z,20.60
2022-10-05T05:30:50.775Z,15.40
2022-10-05T05:31:26.421Z,15.60
2022-10-05T05:32:01.620Z,19.00
2022-10-05T05:32:36.916Z,17.90
2022-10-05T05:33:12.515Z,17.30
2022-10-05T05:33:47.722Z,16.20
2022-10-05T05:34:23.031Z,15.40
2022-10-05T05:34:58.610Z,16.40
2022-10-05T05:35:34.010Z,14.00
2022-10-05T05:36:09.142Z,17.90
2022-10-05T05:36:44.635Z,20.10
2022-10-05T05:37:19.655Z,22.30
2022-10-05T05:37:55.079Z,20.60
2022-10-05T05:38:30.293Z,19.00
2022-10-05T05:39:05.688Z,16.30
2022-10-05T05:39:40.777Z,16.60
2022-10-05T05:40:15.909Z,21.20
2022-10-05T05:40:51.096Z,22.90
2022-10-05T05:41:26.409Z,16.00
2022-10-05T05:42:01.743Z,15.30
2022-10-05T05:42:36.945Z,15.50
2022-10-05T05:43:12.058Z,19.90
2022-10-05T05:43:47.302Z,15.70
2022-10-05T05:44:22.819Z,15.40
2022-10-05T05:44:58.130Z,17.30
2022-10-05T05:45:33.238Z,16.30
2022-10-05T05:46:08.575Z,19.80
2022-10-05T05:47:02.932Z,15.60
2022-10-05T05:47:18.997Z,14.10
2022-10-05T05:47:54.176Z,18.60
2022-10-05T05:48:29.353Z,19.50
2022-10-05T05:49:04.740Z,17.90
2022-10-05T05:49:39.826Z,17.30
2022-10-05T05:50:15.141Z,15.20
2022-10-05T05:50:50.377Z,13.20
2022-10-05T05:51:25.503Z,14.30
2022-10-05T05:52:00.736Z,15.90
2022-10-05T05:52:35.834Z,15.90
2022-10-05T05:53:11.173Z,13.00
2022-10-05T05:53:46.348Z,13.10
2022-10-05T05:54:21.775Z,18.40
2022-10-05T05:54:56.820Z,18.70
2022-10-05T05:55:32.029Z,22.40
2022-10-05T05:56:07.167Z,23.30
2022-10-05T05:56:42.500Z,17.10
2022-10-05T05:57:17.716Z,13.90
2022-10-05T05:57:53.126Z,18.90
2022-10-05T05:58:28.446Z,20.00
2022-10-05T05:59:03.972Z,18.10
2022-10-05T05:59:39.205Z,15.30
2022-10-05T06:00:14.419Z,18.10
2022-10-05T06:00:49.623Z,20.40
2022-10-05T06:01:33.379Z,14.50
2022-10-05T06:02:00.474Z,20.30
2022-10-05T06:02:35.519Z,21.30
2022-10-05T06:03:10.688Z,15.30
2022-10-05T06:03:45.833Z,17.20
2022-10-05T06:04:21.035Z,16.00
2022-10-05T06:04:56.339Z,15.20
2022-10-05T06:05:31.450Z,18.00
2022-10-05T06:06:06.782Z,19.80
2022-10-05T06:06:41.871Z,20.50
2022-10-05T06:07:17.191Z,23.00
2022-10-05T06:07:52.899Z,17.80
2022-10-05T06:08:28.241Z,22.50
2022-10-05T06:09:03.665Z,21.60
2022-10-05T06:09:38.972Z,18.80
2022-10-05T06:10:14.376Z,19.10
2022-10-05T06:10:49.789Z,14.60
2022-10-05T06:11:24.994Z,13.00
2022-10-05T06:12:00.396Z,16.20
2022-10-05T06:12:35.609Z,15.20
2022-10-05T06:13:10.916Z,14.30
2022-10-05T06:13:46.432Z,16.80
2022-10-05T06:14:21.378Z,14.90
2022-10-05T06:14:56.788Z,11.70
2022-10-05T06:15:31.923Z,13.50
2022-10-05T06:16:07.192Z,16.00
2022-10-05T06:16:42.542Z,19.30
2022-10-05T06:17:17.851Z,18.90
2022-10-05T06:17:53.170Z,15.70
2022-10-05T06:18:28.285Z,13.00
2022-10-05T06:19:03.597Z,12.40
2022-10-05T06:19:38.921Z,13.90
2022-10-05T06:20:14.451Z,13.40
2022-10-05T06:20:49.738Z,12.80
2022-10-05T06:21:25.159Z,13.80
2022-10-05T06:22:00.479Z,14.10
2022-10-05T06:22:35.687Z,18.40
2022-10-05T06:23:10.992Z,17.50
2022-10-05T06:23:46.428Z,14.10
2022-10-05T06:24:21.753Z,14.10
2022-10-05T06:24:56.842Z,13.60
2022-10-05T06:25:31.946Z,15.00
2022-10-05T06:26:10.538Z,17.60
2022-10-05T06:26:42.473Z,20.70
2022-10-05T06:27:17.909Z,18.30
2022-10-05T06:27:53.163Z,15.00
2022-10-05T06:28:28.385Z,15.70
2022-10-05T06:29:03.601Z,16.80
2022-10-05T06:29:38.713Z,14.20
2022-10-05T06:30:13.941Z,13.30
2022-10-05T06:30:48.950Z,12.30
2022-10-05T06:31:24.232Z,16.40
2022-10-05T06:31:59.806Z,16.20
2022-10-05T06:32:34.914Z,11.10
2022-10-05T06:33:10.046Z,13.60
2022-10-05T06:33:45.252Z,14.00
2022-10-05T06:34:20.482Z,17.60
2022-10-05T06:34:55.774Z,19.30
2022-10-05T06:35:31.098Z,17.80
2022-10-05T06:36:06.610Z,15.00
2022-10-05T06:36:41.826Z,14.80
2022-10-05T06:37:17.425Z,14.90
2022-10-05T06:37:52.633Z,17.40
2022-10-05T06:38:27.700Z,16.90
2022-10-05T06:39:03.094Z,16.00
2022-10-05T06:39:38.413Z,14.80
2022-10-05T06:40:13.850Z,14.60
2022-10-05T06:40:49.174Z,13.70
2022-10-05T06:41:24.399Z,13.60
2022-10-05T06:41:59.680Z,14.30
2022-10-05T06:42:34.987Z,16.20
2022-10-05T06:43:10.694Z,14.40
2022-10-05T06:43:45.954Z,13.20
2022-10-05T06:44:21.049Z,16.80
2022-10-05T06:44:56.593Z,15.80
2022-10-05T06:45:31.871Z,12.40
2022-10-05T06:46:07.506Z,16.30
2022-10-05T06:46:42.638Z,16.70
2022-10-05T06:47:18.063Z,15.90
2022-10-05T06:47:53.379Z,18.60
2022-10-05T06:48:28.678Z,21.40
2022-10-05T06:49:03.827Z,16.20
2022-10-05T06:49:39.174Z,14.40
2022-10-05T06:50:14.164Z,14.30
2022-10-05T06:50:49.570Z,14.30
2022-10-05T06:51:24.871Z,13.70
2022-10-05T06:52:00.279Z,14.10
2022-10-05T06:52:35.579Z,14.60
2022-10-05T06:53:11.186Z,12.60
2022-10-05T06:53:46.698Z,14.30
2022-10-05T06:54:21.721Z,15.40
2022-10-05T06:54:56.824Z,16.80
2022-10-05T06:55:32.013Z,20.50
2022-10-05T06:56:07.335Z,16.90
2022-10-05T06:56:42.442Z,16.80
2022-10-05T06:57:17.776Z,16.50
2022-10-05T06:57:53.234Z,15.80
2022-10-05T06:58:28.258Z,12.60
2022-10-05T06:59:03.579Z,14.10
2022-10-05T06:59:38.915Z,16.80
2022-10-05T07:00:14.225Z,14.10
2022-10-05T07:00:49.727Z,17.70
2022-10-05T07:01:25.195Z,12.80
2022-10-05T07:02:00.403Z,11.50
2022-10-05T07:02:35.955Z,12.50
2022-10-05T07:03:11.092Z,13.80
2022-10-05T07:03:46.228Z,12.70
2022-10-05T07:04:21.346Z,14.00
2022-10-05T07:04:56.470Z,11.20
2022-10-05T07:05:31.667Z,13.00
2022-10-05T07:06:06.811Z,17.60
2022-10-05T07:06:42.018Z,20.10
2022-10-05T07:07:17.337Z,13.60
2022-10-05T07:07:52.563Z,11.20
2022-10-05T07:08:27.569Z,11.00
2022-10-05T07:09:02.983Z,11.20
2022-10-05T07:09:38.280Z,12.50
2022-10-05T07:10:13.535Z,14.70
2022-10-05T07:10:48.757Z,12.00
2022-10-05T07:11:23.795Z,12.60
2022-10-05T07:12:04.626Z,14.60
2022-10-05T07:12:34.442Z,18.60
2022-10-05T07:13:09.450Z,14.60
2022-10-05T07:13:44.349Z,12.80
2022-10-05T07:14:19.660Z,14.30
2022-10-05T07:14:54.775Z,12.50
2022-10-05T07:15:30.301Z,10.20
2022-10-05T07:16:05.842Z,14.90
2022-10-05T07:16:41.278Z,13.20
2022-10-05T07:17:16.642Z,10.10
2022-10-05T07:17:51.887Z,10.20
2022-10-05T07:18:27.134Z,13.90
2022-10-05T07:19:02.246Z,16.80
2022-10-05T07:19:37.479Z,10.60
2022-10-05T07:20:12.781Z,10.60
2022-10-05T07:20:49.316Z,11.80
2022-10-05T07:21:23.727Z,15.80
2022-10-05T07:21:59.228Z,13.90
2022-10-05T07:22:34.565Z,14.70
2022-10-05T07:23:09.785Z,12.90
2022-10-05T07:23:44.909Z,9.50
2022-10-05T07:24:20.134Z,12.90
2022-10-05T07:24:55.175Z,14.30
2022-10-05T07:25:30.475Z,11.50
2022-10-05T07:26:05.796Z,13.00
2022-10-05T07:26:41.415Z,13.90
2022-10-05T07:27:16.955Z,13.50
2022-10-05T07:27:52.165Z,10.80
2022-10-05T07:28:27.715Z,13.60
2022-10-05T07:29:02.990Z,12.70
2022-10-05T07:29:38.407Z,15.30
2022-10-05T07:30:13.414Z,17.20
2022-10-05T07:30:48.710Z,16.10
2022-10-05T07:31:24.223Z,16.20
2022-10-05T07:31:59.403Z,15.20
2022-10-05T07:32:34.726Z,12.00
2022-10-05T07:33:10.034Z,14.20
2022-10-05T07:33:45.159Z,12.50
2022-10-05T07:34:20.542Z,10.30
2022-10-05T07:34:55.963Z,13.70